KAAF/AAF METAR and TAF weather

Enter ICAO airport designator
Station Type Date Time Source
KAAF METAR 2021/10/24 21:53 UTC NOAA

KAAF 242153Z AUTO 08004KT 10SM FEW110 25/24 A2997 RMK AO2 SLP149 T02500239


Station Type Date Time Source
KAAF Decoded METAR 2021/10/24 21:53 UTC NOAA

APALACHICOLA MUNICIPAL AIRPORT, FL, United States (KAAF) 29-44N 085-01W 5M
Oct 24, 2021 - 05:53 PM EDT / 2021.10.24 2153 UTC
Wind: from the E (080 degrees) at 5 MPH (4 KT):0
Visibility: 10 mile(s):0
Sky conditions: mostly clear
Temperature: 77.0 F (25.0 C)
Dew Point: 75.0 F (23.9 C)
Relative Humidity: 93%
Pressure (altimeter): 29.97 in. Hg (1014 hPa)
ob: KAAF 242153Z AUTO 08004KT 10SM FEW110 25/24 A2997 RMK AO2 SLP149 T02500239
cycle: 22

Station Type Date Time Source
KAAF TAF UTC NOAA

Error!

Example: see airport list